Briefing drone pour Le peage-de-roussillon

Rechercher une autre localisation

Conditions de vol :


Nous sommes le : Vendredi 03 décembre 2021
Il est 22:43 UTC (23:43 LT)

Lever de soleil : 06:36 UTC (07:36 LT)
Coucher de soleil : 16:25 UTC (17:25 LT)

Météo

L'essentiel des conditions de vol

VIGILANCE MÉTÉO FRANCE - Isère (38)
Vigilance Jaune : Pluie-inondation / Avalanches / Neige-verglas
METAR de LFMH
LFMH 032230Z AUTO 19013KT 9999 FEW054/// BKN072/// OVC084/// ///TCU 07/03 Q1012

Date d'émission: 03/12/2021
Heure d'émission: 22:30 UTC
Vent: 190° pour 13 KT (24 km/h)
Visibilité horizontale: > 10 km
Plafond :
- Peu de nuages à 5400ft (1646m)
- Nuages morcelés à 7200ft (2195m)
- Couvert à 8400ft (2560m)
Température: 7 °C
Point de rosée: 3 °C
Humidité: 76%
Pression (QNH): 1012 hPa
TAF de LFMH
LFMH 161901Z 1619/1712 CNL

Conditions prévues :

Heure d'émission : Bulletin éffectué le 16 à 19:00 UTC
Prévision : Valide du 16 a 19:00 UTC au 17 a 12:00 UTC
Nuages : à 0ft (0 m)
WEBCAM POUR LE PEAGE-DE-ROUSSILLON

Réglementation

Voler en sécurité

CARTES AERONAUTIQUE 1/500.000
CARTES VAC (LFMH)
SUP AIP




Chargement des AIP...
NOTAM (LE PEAGE-DE-ROUSSILLON + Terrain à proximité / FIR )




Chargement des NOTAMS...
CONTACT PREFECTURE 38


Avertissement : Les données mises à disposition sont indicatives. Oxygène Drone ne pourra être tenu responsable de dégâts causés aux biens et aux personnes.